sensor_id;sensor_type;location;lat;lon;timestamp;temperature;humidity
43920;DHT22;29578;51.946;5.874;2023-09-19T00:01:18;15.40;88.20
43920;DHT22;29578;51.946;5.874;2023-09-19T00:08:11;15.40;88.30
43920;DHT22;29578;51.946;5.874;2023-09-19T00:11:06;15.30;88.20
43920;DHT22;29578;51.946;5.874;2023-09-19T00:13:39;15.40;88.30
43920;DHT22;29578;51.946;5.874;2023-09-19T00:16:10;15.40;88.20
43920;DHT22;29578;51.946;5.874;2023-09-19T00:18:37;15.50;88.30
43920;DHT22;29578;51.946;5.874;2023-09-19T00:21:03;15.50;88.20
43920;DHT22;29578;51.946;5.874;2023-09-19T00:23:30;15.50;88.20
43920;DHT22;29578;51.946;5.874;2023-09-19T00:25:59;15.50;88.10
43920;DHT22;29578;51.946;5.874;2023-09-19T00:28:25;15.50;88.00
43920;DHT22;29578;51.946;5.874;2023-09-19T00:30:51;15.60;88.10
43920;DHT22;29578;51.946;5.874;2023-09-19T00:33:18;15.60;88.00
43920;DHT22;29578;51.946;5.874;2023-09-19T00:35:49;15.60;88.10
43920;DHT22;29578;51.946;5.874;2023-09-19T00:38:15;15.50;88.10
43920;DHT22;29578;51.946;5.874;2023-09-19T00:40:44;15.60;88.10
43920;DHT22;29578;51.946;5.874;2023-09-19T00:43:10;15.60;88.10
43920;DHT22;29578;51.946;5.874;2023-09-19T00:45:37;15.50;88.10
43920;DHT22;29578;51.946;5.874;2023-09-19T00:48:04;15.50;88.10
43920;DHT22;29578;51.946;5.874;2023-09-19T00:50:35;15.60;88.20
43920;DHT22;29578;51.946;5.874;2023-09-19T00:53:04;15.60;88.20
43920;DHT22;29578;51.946;5.874;2023-09-19T00:55:33;15.60;88.20
43920;DHT22;29578;51.946;5.874;2023-09-19T00:58:00;15.50;88.20
43920;DHT22;29578;51.946;5.874;2023-09-19T01:00:26;15.60;88.30
43920;DHT22;29578;51.946;5.874;2023-09-19T01:02:52;15.50;88.20
43920;DHT22;29578;51.946;5.874;2023-09-19T01:05:18;15.60;88.30
43920;DHT22;29578;51.946;5.874;2023-09-19T01:07:44;15.60;88.30
43920;DHT22;29578;51.946;5.874;2023-09-19T01:10:12;15.50;88.30
43920;DHT22;29578;51.946;5.874;2023-09-19T01:13:01;15.50;88.30
43920;DHT22;29578;51.946;5.874;2023-09-19T01:15:40;15.50;88.50
43920;DHT22;29578;51.946;5.874;2023-09-19T01:21:30;15.50;88.50
43920;DHT22;29578;51.946;5.874;2023-09-19T01:24:25;15.40;88.40
43920;DHT22;29578;51.946;5.874;2023-09-19T01:27:42;15.40;88.50
43920;DHT22;29578;51.946;5.874;2023-09-19T01:30:09;15.40;88.40
43920;DHT22;29578;51.946;5.874;2023-09-19T01:32:36;15.40;88.40
43920;DHT22;29578;51.946;5.874;2023-09-19T01:35:03;15.50;88.50
43920;DHT22;29578;51.946;5.874;2023-09-19T01:37:30;15.40;88.40
43920;DHT22;29578;51.946;5.874;2023-09-19T01:40:01;15.40;88.50
43920;DHT22;29578;51.946;5.874;2023-09-19T01:51:21;15.40;88.40
43920;DHT22;29578;51.946;5.874;2023-09-19T01:54:00;15.40;88.40
43920;DHT22;29578;51.946;5.874;2023-09-19T01:56:37;15.40;88.30
43920;DHT22;29578;51.946;5.874;2023-09-19T01:59:10;15.40;88.30
43920;DHT22;29578;51.946;5.874;2023-09-19T02:01:37;15.30;88.20
43920;DHT22;29578;51.946;5.874;2023-09-19T02:04:03;15.30;88.30
43920;DHT22;29578;51.946;5.874;2023-09-19T02:06:29;15.30;88.30
43920;DHT22;29578;51.946;5.874;2023-09-19T02:08:55;15.30;88.30
43920;DHT22;29578;51.946;5.874;2023-09-19T02:11:21;15.30;88.30
43920;DHT22;29578;51.946;5.874;2023-09-19T02:13:47;15.20;88.30
43920;DHT22;29578;51.946;5.874;2023-09-19T02:16:14;15.30;88.40
43920;DHT22;29578;51.946;5.874;2023-09-19T02:18:42;15.20;88.40
43920;DHT22;29578;51.946;5.874;2023-09-19T02:21:08;15.20;89.00
43920;DHT22;29578;51.946;5.874;2023-09-19T02:23:35;15.20;88.40
43920;DHT22;29578;51.946;5.874;2023-09-19T02:26:04;15.10;88.40
43920;DHT22;29578;51.946;5.874;2023-09-19T02:28:30;15.10;88.50
43920;DHT22;29578;51.946;5.874;2023-09-19T02:30:58;15.10;88.50
43920;DHT22;29578;51.946;5.874;2023-09-19T02:33:24;15.10;88.40
43920;DHT22;29578;51.946;5.874;2023-09-19T02:35:49;15.10;88.40
43920;DHT22;29578;51.946;5.874;2023-09-19T02:38:15;15.00;88.40
43920;DHT22;29578;51.946;5.874;2023-09-19T02:40:46;15.00;88.50
43920;DHT22;29578;51.946;5.874;2023-09-19T02:43:12;14.90;88.50
43920;DHT22;29578;51.946;5.874;2023-09-19T02:45:37;14.90;88.50
43920;DHT22;29578;51.946;5.874;2023-09-19T02:48:04;14.80;88.50
43920;DHT22;29578;51.946;5.874;2023-09-19T02:50:30;14.80;88.50
43920;DHT22;29578;51.946;5.874;2023-09-19T02:52:56;14.80;88.60
43920;DHT22;29578;51.946;5.874;2023-09-19T02:55:21;14.80;88.60
43920;DHT22;29578;51.946;5.874;2023-09-19T02:57:48;14.70;88.50
43920;DHT22;29578;51.946;5.874;2023-09-19T03:00:16;14.70;88.50
43920;DHT22;29578;51.946;5.874;2023-09-19T03:02:42;14.70;89.20
43920;DHT22;29578;51.946;5.874;2023-09-19T03:05:08;14.70;88.50
43920;DHT22;29578;51.946;5.874;2023-09-19T03:07:46;14.60;88.50
43920;DHT22;29578;51.946;5.874;2023-09-19T03:10:12;14.60;88.50
43920;DHT22;29578;51.946;5.874;2023-09-19T03:12:40;14.60;88.50
43920;DHT22;29578;51.946;5.874;2023-09-19T03:15:06;14.50;88.40
43920;DHT22;29578;51.946;5.874;2023-09-19T03:17:34;14.50;88.50
43920;DHT22;29578;51.946;5.874;2023-09-19T03:20:02;14.50;88.40
43920;DHT22;29578;51.946;5.874;2023-09-19T03:22:28;14.50;88.40
43920;DHT22;29578;51.946;5.874;2023-09-19T03:24:53;14.40;88.40
43920;DHT22;29578;51.946;5.874;2023-09-19T03:27:19;14.40;88.40
43920;DHT22;29578;51.946;5.874;2023-09-19T03:29:46;14.40;88.40
43920;DHT22;29578;51.946;5.874;2023-09-19T03:32:12;14.40;88.40
43920;DHT22;29578;51.946;5.874;2023-09-19T03:34:38;14.30;88.40
43920;DHT22;29578;51.946;5.874;2023-09-19T03:37:08;14.30;88.30
43920;DHT22;29578;51.946;5.874;2023-09-19T03:39:34;14.30;88.30
43920;DHT22;29578;51.946;5.874;2023-09-19T03:42:00;14.30;88.20
43920;DHT22;29578;51.946;5.874;2023-09-19T03:44:26;14.20;88.10
43920;DHT22;29578;51.946;5.874;2023-09-19T03:46:51;14.20;88.10
43920;DHT22;29578;51.946;5.874;2023-09-19T03:49:17;14.20;88.00
43920;DHT22;29578;51.946;5.874;2023-09-19T03:51:43;14.20;88.10
43920;DHT22;29578;51.946;5.874;2023-09-19T03:54:08;14.10;88.00
43920;DHT22;29578;51.946;5.874;2023-09-19T03:56:34;14.20;87.90
43920;DHT22;29578;51.946;5.874;2023-09-19T03:59:00;14.10;87.90
43920;DHT22;29578;51.946;5.874;2023-09-19T04:01:26;14.10;87.80
43920;DHT22;29578;51.946;5.874;2023-09-19T04:03:53;14.10;87.80
43920;DHT22;29578;51.946;5.874;2023-09-19T04:06:19;14.20;87.80
43920;DHT22;29578;51.946;5.874;2023-09-19T04:08:45;14.00;88.20
43920;DHT22;29578;51.946;5.874;2023-09-19T04:11:13;14.10;87.70
43920;DHT22;29578;51.946;5.874;2023-09-19T04:13:38;14.10;87.70
43920;DHT22;29578;51.946;5.874;2023-09-19T04:16:04;14.00;88.20
43920;DHT22;29578;51.946;5.874;2023-09-19T04:18:30;14.10;87.60
43920;DHT22;29578;51.946;5.874;2023-09-19T04:20:59;14.00;87.50
43920;DHT22;29578;51.946;5.874;2023-09-19T04:23:28;14.00;87.40
43920;DHT22;29578;51.946;5.874;2023-09-19T04:25:53;14.00;87.40
43920;DHT22;29578;51.946;5.874;2023-09-19T04:28:20;14.00;87.30
43920;DHT22;29578;51.946;5.874;2023-09-19T04:30:45;14.10;87.30
43920;DHT22;29578;51.946;5.874;2023-09-19T04:33:11;14.00;87.20
43920;DHT22;29578;51.946;5.874;2023-09-19T04:35:40;14.00;87.10
43920;DHT22;29578;51.946;5.874;2023-09-19T04:38:08;14.00;87.10
43920;DHT22;29578;51.946;5.874;2023-09-19T04:40:34;14.00;87.10
43920;DHT22;29578;51.946;5.874;2023-09-19T04:43:00;14.00;87.00
43920;DHT22;29578;51.946;5.874;2023-09-19T04:45:27;14.00;87.00
43920;DHT22;29578;51.946;5.874;2023-09-19T04:47:53;14.00;86.90
43920;DHT22;29578;51.946;5.874;2023-09-19T04:50:20;14.00;86.80
43920;DHT22;29578;51.946;5.874;2023-09-19T04:52:49;14.10;86.80
43920;DHT22;29578;51.946;5.874;2023-09-19T04:55:17;14.00;86.60
43920;DHT22;29578;51.946;5.874;2023-09-19T04:57:49;14.00;86.50
43920;DHT22;29578;51.946;5.874;2023-09-19T05:00:16;14.00;86.50
43920;DHT22;29578;51.946;5.874;2023-09-19T05:02:43;14.00;86.50
43920;DHT22;29578;51.946;5.874;2023-09-19T05:05:09;14.00;86.40
43920;DHT22;29578;51.946;5.874;2023-09-19T05:07:36;14.00;86.30
43920;DHT22;29578;51.946;5.874;2023-09-19T05:10:03;14.10;86.30
43920;DHT22;29578;51.946;5.874;2023-09-19T05:12:34;14.00;86.30
43920;DHT22;29578;51.946;5.874;2023-09-19T05:15:04;14.00;86.30
43920;DHT22;29578;51.946;5.874;2023-09-19T05:17:30;14.00;86.30
43920;DHT22;29578;51.946;5.874;2023-09-19T05:19:57;14.00;86.30
43920;DHT22;29578;51.946;5.874;2023-09-19T05:22:26;14.00;86.30
43920;DHT22;29578;51.946;5.874;2023-09-19T05:24:52;14.00;86.20
43920;DHT22;29578;51.946;5.874;2023-09-19T05:27:19;14.00;86.20
43920;DHT22;29578;51.946;5.874;2023-09-19T05:29:46;14.00;86.20
43920;DHT22;29578;51.946;5.874;2023-09-19T05:32:12;14.00;86.10
43920;DHT22;29578;51.946;5.874;2023-09-19T05:34:38;14.00;86.10
43920;DHT22;29578;51.946;5.874;2023-09-19T05:37:05;14.10;86.10
43920;DHT22;29578;51.946;5.874;2023-09-19T05:39:33;14.00;86.10
43920;DHT22;29578;51.946;5.874;2023-09-19T05:41:58;14.10;86.10
43920;DHT22;29578;51.946;5.874;2023-09-19T05:44:25;14.10;86.10
43920;DHT22;29578;51.946;5.874;2023-09-19T05:46:51;14.10;86.00
43920;DHT22;29578;51.946;5.874;2023-09-19T05:49:17;14.10;85.90
43920;DHT22;29578;51.946;5.874;2023-09-19T05:51:43;14.10;85.80
43920;DHT22;29578;51.946;5.874;2023-09-19T05:54:09;14.10;85.80
43920;DHT22;29578;51.946;5.874;2023-09-19T05:56:36;14.20;85.70
43920;DHT22;29578;51.946;5.874;2023-09-19T05:59:02;14.20;85.70
43920;DHT22;29578;51.946;5.874;2023-09-19T06:01:29;14.20;85.60
43920;DHT22;29578;51.946;5.874;2023-09-19T06:03:57;14.30;85.70
43920;DHT22;29578;51.946;5.874;2023-09-19T06:06:25;14.30;85.60
43920;DHT22;29578;51.946;5.874;2023-09-19T06:08:51;14.30;86.00
43920;DHT22;29578;51.946;5.874;2023-09-19T06:11:17;14.30;85.60
43920;DHT22;29578;51.946;5.874;2023-09-19T06:13:45;14.30;85.60
43920;DHT22;29578;51.946;5.874;2023-09-19T06:16:13;14.40;86.20
43920;DHT22;29578;51.946;5.874;2023-09-19T06:18:38;14.30;85.50
43920;DHT22;29578;51.946;5.874;2023-09-19T06:21:05;14.40;85.60
43920;DHT22;29578;51.946;5.874;2023-09-19T06:23:34;14.40;85.50
43920;DHT22;29578;51.946;5.874;2023-09-19T06:26:00;14.50;85.60
43920;DHT22;29578;51.946;5.874;2023-09-19T06:28:46;14.50;85.60
43920;DHT22;29578;51.946;5.874;2023-09-19T06:31:45;14.50;85.50
43920;DHT22;29578;51.946;5.874;2023-09-19T06:34:11;14.40;85.40
43920;DHT22;29578;51.946;5.874;2023-09-19T06:36:39;14.50;85.40
43920;DHT22;29578;51.946;5.874;2023-09-19T06:39:06;14.50;85.40
43920;DHT22;29578;51.946;5.874;2023-09-19T06:41:35;14.60;85.40
43920;DHT22;29578;51.946;5.874;2023-09-19T06:44:26;14.60;85.40
43920;DHT22;29578;51.946;5.874;2023-09-19T06:46:55;14.60;85.40
43920;DHT22;29578;51.946;5.874;2023-09-19T06:49:21;14.70;85.30
43920;DHT22;29578;51.946;5.874;2023-09-19T06:52:13;14.70;85.30
43920;DHT22;29578;51.946;5.874;2023-09-19T06:55:04;14.70;85.30
43920;DHT22;29578;51.946;5.874;2023-09-19T06:57:37;14.80;85.30
43920;DHT22;29578;51.946;5.874;2023-09-19T07:00:03;14.70;85.30
43920;DHT22;29578;51.946;5.874;2023-09-19T07:02:35;14.80;85.30
43920;DHT22;29578;51.946;5.874;2023-09-19T07:05:03;14.80;85.20
43920;DHT22;29578;51.946;5.874;2023-09-19T07:07:33;14.80;85.20
43920;DHT22;29578;51.946;5.874;2023-09-19T07:10:01;14.90;85.20
43920;DHT22;29578;51.946;5.874;2023-09-19T07:19:46;14.90;85.10
43920;DHT22;29578;51.946;5.874;2023-09-19T07:22:43;15.00;85.10
43920;DHT22;29578;51.946;5.874;2023-09-19T07:25:14;15.10;85.10
43920;DHT22;29578;51.946;5.874;2023-09-19T07:31:16;15.10;85.00
43920;DHT22;29578;51.946;5.874;2023-09-19T08:20:18;15.90;84.30
43920;DHT22;29578;51.946;5.874;2023-09-19T08:22:52;16.00;84.20
43920;DHT22;29578;51.946;5.874;2023-09-19T08:25:44;15.90;84.10
43920;DHT22;29578;51.946;5.874;2023-09-19T08:28:21;16.00;84.20
43920;DHT22;29578;51.946;5.874;2023-09-19T08:31:05;16.10;84.20
43920;DHT22;29578;51.946;5.874;2023-09-19T08:34:08;16.20;84.10
43920;DHT22;29578;51.946;5.874;2023-09-19T08:40:39;16.30;83.90
43920;DHT22;29578;51.946;5.874;2023-09-19T08:46:41;16.50;83.70
43920;DHT22;29578;51.946;5.874;2023-09-19T08:56:10;16.70;83.30
43920;DHT22;29578;51.946;5.874;2023-09-19T08:58:59;16.80;83.30
43920;DHT22;29578;51.946;5.874;2023-09-19T09:04:35;16.80;83.20
43920;DHT22;29578;51.946;5.874;2023-09-19T09:07:14;16.80;83.30
43920;DHT22;29578;51.946;5.874;2023-09-19T09:13:28;16.90;83.30
43920;DHT22;29578;51.946;5.874;2023-09-19T09:20:26;17.00;83.10
43920;DHT22;29578;51.946;5.874;2023-09-19T09:29:48;17.10;82.70
43920;DHT22;29578;51.946;5.874;2023-09-19T09:32:35;17.30;82.80
43920;DHT22;29578;51.946;5.874;2023-09-19T09:35:07;17.40;82.50
43920;DHT22;29578;51.946;5.874;2023-09-19T09:37:58;17.50;82.20
43920;DHT22;29578;51.946;5.874;2023-09-19T09:40:54;17.60;82.00
43920;DHT22;29578;51.946;5.874;2023-09-19T09:43:38;17.70;81.90
43920;DHT22;29578;51.946;5.874;2023-09-19T09:46:10;17.90;81.70
43920;DHT22;29578;51.946;5.874;2023-09-19T09:49:01;17.80;81.50
43920;DHT22;29578;51.946;5.874;2023-09-19T09:51:48;17.90;81.50
43920;DHT22;29578;51.946;5.874;2023-09-19T09:54:26;17.90;81.40
43920;DHT22;29578;51.946;5.874;2023-09-19T09:57:02;18.00;81.30
43920;DHT22;29578;51.946;5.874;2023-09-19T10:03:35;18.00;81.40
43920;DHT22;29578;51.946;5.874;2023-09-19T10:09:21;18.00;81.00
43920;DHT22;29578;51.946;5.874;2023-09-19T10:12:03;18.10;81.10
43920;DHT22;29578;51.946;5.874;2023-09-19T10:14:44;18.10;81.00
43920;DHT22;29578;51.946;5.874;2023-09-19T10:17:48;18.10;81.00
43920;DHT22;29578;51.946;5.874;2023-09-19T10:26:27;18.20;80.90
43920;DHT22;29578;51.946;5.874;2023-09-19T10:29:02;18.20;80.70
43920;DHT22;29578;51.946;5.874;2023-09-19T10:31:54;18.20;80.70
43920;DHT22;29578;51.946;5.874;2023-09-19T10:35:29;18.30;80.70
43920;DHT22;29578;51.946;5.874;2023-09-19T10:42:19;18.30;80.20
43920;DHT22;29578;51.946;5.874;2023-09-19T10:45:08;18.50;80.00
43920;DHT22;29578;51.946;5.874;2023-09-19T10:47:46;18.40;79.90
43920;DHT22;29578;51.946;5.874;2023-09-19T10:50:20;18.40;79.80
43920;DHT22;29578;51.946;5.874;2023-09-19T10:52:53;18.40;79.80
43920;DHT22;29578;51.946;5.874;2023-09-19T10:55:41;18.40;79.70
43920;DHT22;29578;51.946;5.874;2023-09-19T11:04:49;18.50;79.70
43920;DHT22;29578;51.946;5.874;2023-09-19T11:07:17;18.50;79.50
43920;DHT22;29578;51.946;5.874;2023-09-19T11:10:29;18.50;80.20
43920;DHT22;29578;51.946;5.874;2023-09-19T11:14:13;18.50;79.50
43920;DHT22;29578;51.946;5.874;2023-09-19T11:16:40;18.50;79.50
43920;DHT22;29578;51.946;5.874;2023-09-19T11:20:14;18.50;79.60
43920;DHT22;29578;51.946;5.874;2023-09-19T11:29:27;18.60;79.20
43920;DHT22;29578;51.946;5.874;2023-09-19T11:32:05;18.70;78.70
43920;DHT22;29578;51.946;5.874;2023-09-19T11:35:15;18.80;78.60
43920;DHT22;29578;51.946;5.874;2023-09-19T11:38:02;18.80;78.50
43920;DHT22;29578;51.946;5.874;2023-09-19T11:41:42;18.80;78.50
43920;DHT22;29578;51.946;5.874;2023-09-19T11:43:34;18.90;78.60
43920;DHT22;29578;51.946;5.874;2023-09-19T11:46:02;18.90;78.50
43920;DHT22;29578;51.946;5.874;2023-09-19T11:48:53;19.00;78.40
43920;DHT22;29578;51.946;5.874;2023-09-19T11:51:20;18.90;78.10
43920;DHT22;29578;51.946;5.874;2023-09-19T11:53:55;19.00;78.20
43920;DHT22;29578;51.946;5.874;2023-09-19T11:56:24;19.00;78.10
43920;DHT22;29578;51.946;5.874;2023-09-19T11:58:55;19.00;78.10
43920;DHT22;29578;51.946;5.874;2023-09-19T12:01:30;19.00;78.20
43920;DHT22;29578;51.946;5.874;2023-09-19T12:04:02;19.20;78.10
43920;DHT22;29578;51.946;5.874;2023-09-19T12:06:33;19.30;77.80
43920;DHT22;29578;51.946;5.874;2023-09-19T12:09:29;19.40;77.50
43920;DHT22;29578;51.946;5.874;2023-09-19T12:12:00;19.50;77.00
43920;DHT22;29578;51.946;5.874;2023-09-19T12:14:32;19.60;76.70
43920;DHT22;29578;51.946;5.874;2023-09-19T12:16:59;19.50;76.70
43920;DHT22;29578;51.946;5.874;2023-09-19T12:19:29;19.40;76.80
43920;DHT22;29578;51.946;5.874;2023-09-19T12:21:59;19.50;77.20
43920;DHT22;29578;51.946;5.874;2023-09-19T12:24:30;19.50;77.00
43920;DHT22;29578;51.946;5.874;2023-09-19T12:27:02;19.50;76.80
43920;DHT22;29578;51.946;5.874;2023-09-19T12:32:10;19.80;76.60
43920;DHT22;29578;51.946;5.874;2023-09-19T12:34:36;20.00;76.00
43920;DHT22;29578;51.946;5.874;2023-09-19T12:37:34;19.90;75.60
43920;DHT22;29578;51.946;5.874;2023-09-19T12:40:06;19.90;75.70
43920;DHT22;29578;51.946;5.874;2023-09-19T12:42:44;19.90;75.70
43920;DHT22;29578;51.946;5.874;2023-09-19T12:45:11;19.80;76.10
43920;DHT22;29578;51.946;5.874;2023-09-19T12:47:39;19.80;76.30
43920;DHT22;29578;51.946;5.874;2023-09-19T12:50:23;19.70;76.50
43920;DHT22;29578;51.946;5.874;2023-09-19T12:52:58;19.60;76.70
43920;DHT22;29578;51.946;5.874;2023-09-19T12:55:28;19.60;76.80
43920;DHT22;29578;51.946;5.874;2023-09-19T12:58:12;19.50;76.80
43920;DHT22;29578;51.946;5.874;2023-09-19T13:00:40;19.50;76.80
43920;DHT22;29578;51.946;5.874;2023-09-19T13:03:14;19.40;76.80
43920;DHT22;29578;51.946;5.874;2023-09-19T13:05:59;19.40;76.80
43920;DHT22;29578;51.946;5.874;2023-09-19T13:08:29;19.30;76.80
43920;DHT22;29578;51.946;5.874;2023-09-19T13:11:18;19.30;76.90
43920;DHT22;29578;51.946;5.874;2023-09-19T13:14:13;19.40;76.80
43920;DHT22;29578;51.946;5.874;2023-09-19T13:17:02;19.40;76.70
43920;DHT22;29578;51.946;5.874;2023-09-19T13:19:48;19.40;76.50
43920;DHT22;29578;51.946;5.874;2023-09-19T13:22:38;19.50;76.40
43920;DHT22;29578;51.946;5.874;2023-09-19T13:25:08;19.50;76.30
43920;DHT22;29578;51.946;5.874;2023-09-19T13:27:40;19.50;76.20
43920;DHT22;29578;51.946;5.874;2023-09-19T13:30:09;19.50;76.30
43920;DHT22;29578;51.946;5.874;2023-09-19T13:32:35;19.60;76.20
43920;DHT22;29578;51.946;5.874;2023-09-19T13:35:04;19.50;76.10
43920;DHT22;29578;51.946;5.874;2023-09-19T13:45:12;19.50;76.30
43920;DHT22;29578;51.946;5.874;2023-09-19T13:48:18;19.50;76.40
43920;DHT22;29578;51.946;5.874;2023-09-19T13:54:06;19.30;76.70
43920;DHT22;29578;51.946;5.874;2023-09-19T13:56:34;19.40;76.80
43920;DHT22;29578;51.946;5.874;2023-09-19T13:59:03;19.30;76.60
43920;DHT22;29578;51.946;5.874;2023-09-19T14:01:34;19.40;76.30
43920;DHT22;29578;51.946;5.874;2023-09-19T14:04:12;19.40;76.20
43920;DHT22;29578;51.946;5.874;2023-09-19T14:06:47;19.50;75.90
43920;DHT22;29578;51.946;5.874;2023-09-19T14:09:15;19.50;75.50
43920;DHT22;29578;51.946;5.874;2023-09-19T14:11:45;19.70;75.50
43920;DHT22;29578;51.946;5.874;2023-09-19T14:14:12;19.80;75.30
43920;DHT22;29578;51.946;5.874;2023-09-19T14:17:05;19.80;75.10
43920;DHT22;29578;51.946;5.874;2023-09-19T14:19:34;19.90;75.00
43920;DHT22;29578;51.946;5.874;2023-09-19T14:22:53;19.90;75.00
43920;DHT22;29578;51.946;5.874;2023-09-19T14:25:27;20.00;74.90
43920;DHT22;29578;51.946;5.874;2023-09-19T14:27:56;20.00;74.90
43920;DHT22;29578;51.946;5.874;2023-09-19T14:30:22;20.00;74.80
43920;DHT22;29578;51.946;5.874;2023-09-19T14:32:49;20.00;74.80
43920;DHT22;29578;51.946;5.874;2023-09-19T14:35:17;20.00;74.80
43920;DHT22;29578;51.946;5.874;2023-09-19T14:38:00;19.80;75.00
43920;DHT22;29578;51.946;5.874;2023-09-19T14:41:06;19.80;75.10
43920;DHT22;29578;51.946;5.874;2023-09-19T14:43:43;19.70;75.30
43920;DHT22;29578;51.946;5.874;2023-09-19T14:46:13;19.80;75.40
43920;DHT22;29578;51.946;5.874;2023-09-19T14:48:40;19.70;75.50
43920;DHT22;29578;51.946;5.874;2023-09-19T14:51:11;19.70;75.50
43920;DHT22;29578;51.946;5.874;2023-09-19T14:53:40;19.70;75.50
43920;DHT22;29578;51.946;5.874;2023-09-19T15:00:10;19.70;75.30
43920;DHT22;29578;51.946;5.874;2023-09-19T15:02:38;19.60;75.20
43920;DHT22;29578;51.946;5.874;2023-09-19T15:05:13;19.60;75.20
43920;DHT22;29578;51.946;5.874;2023-09-19T15:08:13;19.60;75.10
43920;DHT22;29578;51.946;5.874;2023-09-19T15:13:35;19.50;75.30
43920;DHT22;29578;51.946;5.874;2023-09-19T15:16:04;19.50;75.50
43920;DHT22;29578;51.946;5.874;2023-09-19T15:18:37;19.50;75.50
43920;DHT22;29578;51.946;5.874;2023-09-19T15:21:04;19.50;75.60
43920;DHT22;29578;51.946;5.874;2023-09-19T15:23:33;19.40;75.70
43920;DHT22;29578;51.946;5.874;2023-09-19T15:26:01;19.40;75.70
43920;DHT22;29578;51.946;5.874;2023-09-19T15:28:30;19.30;75.70
43920;DHT22;29578;51.946;5.874;2023-09-19T15:31:03;19.30;75.80
43920;DHT22;29578;51.946;5.874;2023-09-19T15:33:30;19.30;75.80
43920;DHT22;29578;51.946;5.874;2023-09-19T15:54:18;19.20;76.20
43920;DHT22;29578;51.946;5.874;2023-09-19T15:57:07;19.20;76.10
43920;DHT22;29578;51.946;5.874;2023-09-19T16:06:20;19.20;76.10
43920;DHT22;29578;51.946;5.874;2023-09-19T16:08:59;19.20;76.10
43920;DHT22;29578;51.946;5.874;2023-09-19T16:11:31;19.10;76.10
43920;DHT22;29578;51.946;5.874;2023-09-19T16:13:57;19.20;76.20
43920;DHT22;29578;51.946;5.874;2023-09-19T16:16:25;19.10;76.20
43920;DHT22;29578;51.946;5.874;2023-09-19T16:18:53;19.10;76.20
43920;DHT22;29578;51.946;5.874;2023-09-19T16:21:23;19.00;76.20
43920;DHT22;29578;51.946;5.874;2023-09-19T16:24:23;19.00;76.30
43920;DHT22;29578;51.946;5.874;2023-09-19T16:30:58;19.10;76.50
43920;DHT22;29578;51.946;5.874;2023-09-19T16:33:25;19.00;76.30
43920;DHT22;29578;51.946;5.874;2023-09-19T16:35:52;19.10;76.50
43920;DHT22;29578;51.946;5.874;2023-09-19T16:38:18;19.00;76.50
43920;DHT22;29578;51.946;5.874;2023-09-19T16:40:56;19.00;76.50
43920;DHT22;29578;51.946;5.874;2023-09-19T16:43:24;19.00;76.60
43920;DHT22;29578;51.946;5.874;2023-09-19T16:45:54;19.00;76.60
43920;DHT22;29578;51.946;5.874;2023-09-19T16:48:21;18.90;76.60
43920;DHT22;29578;51.946;5.874;2023-09-19T16:50:49;18.90;76.50
43920;DHT22;29578;51.946;5.874;2023-09-19T16:53:16;18.90;76.60
43920;DHT22;29578;51.946;5.874;2023-09-19T16:55:43;18.90;76.70
43920;DHT22;29578;51.946;5.874;2023-09-19T16:58:09;18.90;76.70
43920;DHT22;29578;51.946;5.874;2023-09-19T17:00:36;19.00;76.70
43920;DHT22;29578;51.946;5.874;2023-09-19T17:03:02;19.00;76.70
43920;DHT22;29578;51.946;5.874;2023-09-19T17:05:30;18.90;76.70
43920;DHT22;29578;51.946;5.874;2023-09-19T17:07:55;19.00;76.70
43920;DHT22;29578;51.946;5.874;2023-09-19T17:10:21;19.00;76.60
43920;DHT22;29578;51.946;5.874;2023-09-19T17:12:47;19.00;76.70
43920;DHT22;29578;51.946;5.874;2023-09-19T17:15:13;19.00;76.70
43920;DHT22;29578;51.946;5.874;2023-09-19T17:17:38;19.00;76.70
43920;DHT22;29578;51.946;5.874;2023-09-19T17:20:06;19.00;76.70
43920;DHT22;29578;51.946;5.874;2023-09-19T17:22:32;19.00;76.70
43920;DHT22;29578;51.946;5.874;2023-09-19T17:24:58;18.90;76.60
43920;DHT22;29578;51.946;5.874;2023-09-19T17:27:24;19.00;76.70
43920;DHT22;29578;51.946;5.874;2023-09-19T17:29:50;18.90;76.70
43920;DHT22;29578;51.946;5.874;2023-09-19T17:32:19;18.90;76.80
43920;DHT22;29578;51.946;5.874;2023-09-19T17:34:47;18.80;76.90
43920;DHT22;29578;51.946;5.874;2023-09-19T17:37:14;18.80;77.00
43920;DHT22;29578;51.946;5.874;2023-09-19T17:39:40;18.70;77.10
43920;DHT22;29578;51.946;5.874;2023-09-19T17:42:06;18.70;77.20
43920;DHT22;29578;51.946;5.874;2023-09-19T17:44:35;18.60;77.30
43920;DHT22;29578;51.946;5.874;2023-09-19T17:47:02;18.60;77.50
43920;DHT22;29578;51.946;5.874;2023-09-19T17:49:28;18.60;77.60
43920;DHT22;29578;51.946;5.874;2023-09-19T17:51:54;18.50;77.70
43920;DHT22;29578;51.946;5.874;2023-09-19T17:54:19;18.50;77.80
43920;DHT22;29578;51.946;5.874;2023-09-19T17:56:45;18.50;77.90
43920;DHT22;29578;51.946;5.874;2023-09-19T17:59:11;18.50;78.00
43920;DHT22;29578;51.946;5.874;2023-09-19T18:01:39;18.40;78.00
43920;DHT22;29578;51.946;5.874;2023-09-19T18:04:04;18.40;78.00
43920;DHT22;29578;51.946;5.874;2023-09-19T18:06:34;18.30;78.10
43920;DHT22;29578;51.946;5.874;2023-09-19T18:09:03;18.40;78.10
43920;DHT22;29578;51.946;5.874;2023-09-19T18:11:32;18.40;78.10
43920;DHT22;29578;51.946;5.874;2023-09-19T18:13:58;18.40;78.00
43920;DHT22;29578;51.946;5.874;2023-09-19T18:16:25;18.40;77.90
43920;DHT22;29578;51.946;5.874;2023-09-19T18:18:53;18.40;77.80
43920;DHT22;29578;51.946;5.874;2023-09-19T18:21:21;18.40;77.90
43920;DHT22;29578;51.946;5.874;2023-09-19T18:23:52;18.40;77.90
43920;DHT22;29578;51.946;5.874;2023-09-19T18:26:19;18.30;77.90
43920;DHT22;29578;51.946;5.874;2023-09-19T18:28:44;18.30;77.80
43920;DHT22;29578;51.946;5.874;2023-09-19T18:31:10;18.40;78.00
43920;DHT22;29578;51.946;5.874;2023-09-19T18:33:37;18.30;78.00
43920;DHT22;29578;51.946;5.874;2023-09-19T18:36:03;18.30;78.10
43920;DHT22;29578;51.946;5.874;2023-09-19T18:38:40;18.20;78.20
43920;DHT22;29578;51.946;5.874;2023-09-19T18:41:07;18.20;78.40
43920;DHT22;29578;51.946;5.874;2023-09-19T18:43:33;18.30;78.50
43920;DHT22;29578;51.946;5.874;2023-09-19T18:46:03;18.20;78.60
43920;DHT22;29578;51.946;5.874;2023-09-19T18:48:35;18.10;78.70
43920;DHT22;29578;51.946;5.874;2023-09-19T18:51:05;18.10;78.90
43920;DHT22;29578;51.946;5.874;2023-09-19T18:53:34;18.00;78.90
43920;DHT22;29578;51.946;5.874;2023-09-19T18:56:05;18.00;79.70
43920;DHT22;29578;51.946;5.874;2023-09-19T18:58:32;18.00;79.20
43920;DHT22;29578;51.946;5.874;2023-09-19T19:01:03;18.00;79.30
43920;DHT22;29578;51.946;5.874;2023-09-19T19:03:34;17.90;79.30
43920;DHT22;29578;51.946;5.874;2023-09-19T19:06:10;17.90;79.30
43920;DHT22;29578;51.946;5.874;2023-09-19T19:08:39;17.90;79.40